createdAt,value
2018-06-30T00:00:33.797Z,15.20
2018-06-30T00:03:02.537Z,15.20
2018-06-30T00:05:31.363Z,15.10
2018-06-30T00:07:59.564Z,15.10
2018-06-30T00:10:29.266Z,15.00
2018-06-30T00:12:58.284Z,15.00
2018-06-30T00:15:26.739Z,15.00
2018-06-30T00:17:55.235Z,15.00
2018-06-30T00:20:23.717Z,14.90
2018-06-30T00:22:51.954Z,14.90
2018-06-30T00:25:20.136Z,14.90
2018-06-30T00:27:48.307Z,14.80
2018-06-30T00:30:16.516Z,14.80
2018-06-30T00:32:44.753Z,14.80
2018-06-30T00:35:13.074Z,14.70
2018-06-30T00:37:41.858Z,14.70
2018-06-30T00:40:10.067Z,14.70
2018-06-30T00:42:38.269Z,14.70
2018-06-30T00:45:06.537Z,14.60
2018-06-30T00:47:34.807Z,14.60
2018-06-30T00:50:03.087Z,14.60
2018-06-30T00:52:31.274Z,14.50
2018-06-30T00:54:59.407Z,14.50
2018-06-30T00:57:27.705Z,14.50
2018-06-30T00:59:55.861Z,14.50
2018-06-30T01:02:24.073Z,14.40
2018-06-30T01:04:52.449Z,14.40
2018-06-30T01:07:20.578Z,14.40
2018-06-30T01:09:48.869Z,14.40
2018-06-30T01:12:17.295Z,14.30
2018-06-30T01:14:46.057Z,14.30
2018-06-30T01:17:14.869Z,14.20
2018-06-30T01:19:42.977Z,14.20
2018-06-30T01:22:11.231Z,14.20
2018-06-30T01:24:39.437Z,14.10
2018-06-30T01:27:07.769Z,14.10
2018-06-30T01:32:04.162Z,14.00
2018-06-30T01:34:32.406Z,14.00
2018-06-30T01:37:00.971Z,13.90
2018-06-30T01:39:29.862Z,13.90
2018-06-30T01:41:58.075Z,13.90
2018-06-30T01:44:26.537Z,13.80
2018-06-30T01:46:55.110Z,13.80
2018-06-30T01:49:23.347Z,13.70
2018-06-30T01:56:48.273Z,13.60
2018-06-30T01:59:16.819Z,13.60
2018-06-30T02:01:45.117Z,13.60
2018-06-30T02:04:14.703Z,13.50
2018-06-30T02:06:42.819Z,13.50
2018-06-30T02:09:11.555Z,13.50
2018-06-30T02:11:41.302Z,13.50
2018-06-30T02:14:09.968Z,13.50
2018-06-30T02:16:38.357Z,13.40
2018-06-30T02:19:07.982Z,13.40
2018-06-30T02:21:36.267Z,13.40
2018-06-30T02:24:04.507Z,13.40
2018-06-30T02:26:32.831Z,13.40
2018-06-30T02:29:01.089Z,13.30
2018-06-30T02:31:29.571Z,13.30
2018-06-30T02:33:59.800Z,13.30
2018-06-30T02:36:30.525Z,13.30
2018-06-30T02:38:58.899Z,13.30
2018-06-30T02:41:27.444Z,13.30
2018-06-30T02:43:55.842Z,13.30
2018-06-30T02:46:24.310Z,13.20
2018-06-30T02:48:52.526Z,13.20
2018-06-30T02:51:20.763Z,13.20
2018-06-30T02:53:48.908Z,13.20
2018-06-30T02:56:17.326Z,13.10
2018-06-30T02:58:46.570Z,13.10
2018-06-30T03:01:16.236Z,13.10
2018-06-30T03:08:34.597Z,13.00
2018-06-30T03:11:03.327Z,13.00
2018-06-30T03:13:31.511Z,13.00
2018-06-30T03:16:01.544Z,13.00
2018-06-30T03:18:29.926Z,13.00
2018-06-30T03:20:58.572Z,13.00
2018-06-30T03:23:26.814Z,13.00
2018-06-30T03:25:56.244Z,13.00
2018-06-30T03:28:24.610Z,13.00
2018-06-30T03:30:52.829Z,13.00
2018-06-30T03:33:20.978Z,13.00
2018-06-30T03:35:49.152Z,13.00
2018-06-30T03:38:18.347Z,13.00
2018-06-30T03:40:46.556Z,13.00
2018-06-30T03:43:16.009Z,13.10
2018-06-30T03:45:44.148Z,13.00
2018-06-30T03:48:12.502Z,13.10
2018-06-30T03:50:40.810Z,13.10
2018-06-30T03:53:08.948Z,13.20
2018-06-30T03:55:39.448Z,13.20
2018-06-30T03:58:08.934Z,13.20
2018-06-30T04:00:38.994Z,13.20
2018-06-30T04:03:07.706Z,13.30
2018-06-30T04:05:36.924Z,13.30
2018-06-30T04:08:05.124Z,13.30
2018-06-30T04:10:33.888Z,13.40
2018-06-30T04:13:02.942Z,13.40
2018-06-30T04:15:31.104Z,13.50
2018-06-30T04:17:59.234Z,13.50
2018-06-30T04:20:27.622Z,13.60
2018-06-30T04:22:57.380Z,13.60
2018-06-30T04:25:25.585Z,13.60
2018-06-30T04:27:53.913Z,13.70
2018-06-30T04:30:28.838Z,13.80
2018-06-30T04:32:57.247Z,13.80
2018-06-30T04:35:25.899Z,13.90
2018-06-30T04:37:54.116Z,13.90
2018-06-30T04:40:22.316Z,14.00
2018-06-30T04:42:50.633Z,14.10
2018-06-30T04:47:48.845Z,14.20
2018-06-30T04:50:19.072Z,14.30
2018-06-30T04:52:47.348Z,14.50
2018-06-30T04:55:15.489Z,15.70
2018-06-30T04:57:43.741Z,17.40
2018-06-30T05:00:12.474Z,19.30
2018-06-30T05:02:41.757Z,20.50
2018-06-30T05:05:09.929Z,21.30
2018-06-30T05:07:38.400Z,22.30
2018-06-30T05:10:06.598Z,23.10
2018-06-30T05:12:36.523Z,23.60
2018-06-30T05:15:05.813Z,23.70
2018-06-30T05:17:34.644Z,23.30
2018-06-30T05:20:02.755Z,23.30
2018-06-30T05:22:32.263Z,23.60
2018-06-30T05:25:00.686Z,23.90
2018-06-30T05:29:58.368Z,23.80
2018-06-30T05:32:26.524Z,23.30
2018-06-30T05:34:54.774Z,23.50
2018-06-30T05:37:22.906Z,24.30
2018-06-30T05:39:51.191Z,24.60
2018-06-30T05:42:19.385Z,24.40
2018-06-30T05:44:47.727Z,24.10
2018-06-30T05:47:16.521Z,23.40
2018-06-30T05:52:12.781Z,23.50
2018-06-30T05:54:41.057Z,23.90
2018-06-30T05:57:09.839Z,24.10
2018-06-30T05:59:38.723Z,24.50
2018-06-30T06:02:08.250Z,24.70
2018-06-30T06:04:36.401Z,24.70
2018-06-30T06:07:04.749Z,24.50
2018-06-30T06:09:32.942Z,24.40
2018-06-30T06:12:01.081Z,24.10
2018-06-30T06:14:29.315Z,23.50
2018-06-30T06:16:57.453Z,23.20
2018-06-30T06:19:26.053Z,23.30
2018-06-30T06:21:55.605Z,23.00
2018-06-30T06:24:23.927Z,22.70
2018-06-30T06:29:21.249Z,22.90
2018-06-30T06:31:49.397Z,22.80
2018-06-30T06:34:17.537Z,22.70
2018-06-30T06:36:45.687Z,22.90
2018-06-30T06:39:13.812Z,22.80
2018-06-30T06:41:42.043Z,22.90
2018-06-30T06:44:10.215Z,23.00
2018-06-30T06:46:38.787Z,23.00
2018-06-30T06:49:07.723Z,22.90
2018-06-30T06:51:35.907Z,22.90
2018-06-30T06:54:04.473Z,22.50
2018-06-30T06:56:32.626Z,22.40
2018-06-30T06:59:00.766Z,22.30
2018-06-30T07:01:29.672Z,22.40
2018-06-30T07:03:57.887Z,22.20
2018-06-30T07:06:26.102Z,22.20
2018-06-30T07:08:56.931Z,22.30
2018-06-30T07:11:25.920Z,22.50
2018-06-30T07:13:54.162Z,22.30
2018-06-30T07:16:22.583Z,22.40
2018-06-30T07:18:51.956Z,22.40
2018-06-30T07:21:20.086Z,22.20
2018-06-30T07:23:48.206Z,21.70
2018-06-30T07:26:16.542Z,21.80
2018-06-30T07:28:44.834Z,22.00
2018-06-30T07:31:13.022Z,22.30
2018-06-30T07:33:41.235Z,22.40
2018-06-30T07:36:10.568Z,22.40
2018-06-30T07:38:38.672Z,22.30
2018-06-30T07:41:06.804Z,22.00
2018-06-30T07:46:03.588Z,22.10
2018-06-30T07:48:33.087Z,22.10
2018-06-30T07:53:29.232Z,22.10
2018-06-30T07:58:25.388Z,22.40
2018-06-30T08:00:53.710Z,22.40
2018-06-30T08:03:21.918Z,22.30
2018-06-30T08:05:51.175Z,22.20
2018-06-30T08:08:20.146Z,22.20
2018-06-30T08:10:48.648Z,22.10
2018-06-30T08:13:17.384Z,21.90
2018-06-30T08:15:45.718Z,21.80
2018-06-30T08:18:14.263Z,21.60
2018-06-30T08:20:42.420Z,21.50
2018-06-30T08:23:10.675Z,21.70
2018-06-30T08:25:38.820Z,21.60
2018-06-30T08:28:07.119Z,21.50
2018-06-30T08:30:35.349Z,21.40
2018-06-30T08:33:03.653Z,21.40
2018-06-30T08:35:31.801Z,21.10
2018-06-30T08:37:59.944Z,21.00
2018-06-30T08:40:28.119Z,21.10
2018-06-30T08:42:57.425Z,21.30
2018-06-30T08:45:25.881Z,21.30
2018-06-30T08:50:22.333Z,21.10
2018-06-30T08:52:50.904Z,21.30
2018-06-30T08:55:19.137Z,21.60
2018-06-30T08:57:47.523Z,21.50
2018-06-30T09:00:16.941Z,21.80
2018-06-30T09:02:45.718Z,22.00
2018-06-30T09:05:15.227Z,22.00
2018-06-30T09:07:43.776Z,22.10
2018-06-30T09:12:40.575Z,21.90
2018-06-30T09:15:08.761Z,21.70
2018-06-30T09:17:36.981Z,21.50
2018-06-30T09:20:05.224Z,21.50
2018-06-30T09:22:33.453Z,21.40
2018-06-30T09:25:03.115Z,21.40
2018-06-30T09:27:32.881Z,21.40
2018-06-30T09:30:01.257Z,21.40
2018-06-30T09:32:29.458Z,21.70
2018-06-30T09:34:57.607Z,22.10
2018-06-30T09:37:25.952Z,22.30
2018-06-30T09:39:54.318Z,22.40
2018-06-30T09:42:22.612Z,22.40
2018-06-30T09:44:50.939Z,22.30
2018-06-30T09:47:20.108Z,22.30
2018-06-30T09:49:48.313Z,22.10
2018-06-30T09:52:16.457Z,22.10
2018-06-30T09:54:45.928Z,22.00
2018-06-30T09:57:14.244Z,22.00
2018-06-30T09:59:42.490Z,21.80
2018-06-30T10:02:10.631Z,21.80
2018-06-30T10:04:38.801Z,21.90
2018-06-30T10:07:07.455Z,22.10
2018-06-30T10:09:35.631Z,22.30
2018-06-30T10:12:03.741Z,22.40
2018-06-30T10:14:31.922Z,22.30
2018-06-30T10:17:00.316Z,22.60
2018-06-30T10:19:28.571Z,22.60
2018-06-30T10:21:56.657Z,22.40
2018-06-30T10:24:24.818Z,22.20
2018-06-30T10:26:54.291Z,22.10
2018-06-30T10:29:25.075Z,21.90
2018-06-30T10:31:53.393Z,21.70
2018-06-30T10:34:21.877Z,21.60
2018-06-30T10:36:51.247Z,21.70
2018-06-30T10:39:20.163Z,21.90
2018-06-30T10:41:48.331Z,22.00
2018-06-30T10:44:16.847Z,22.00
2018-06-30T10:46:45.470Z,22.30
2018-06-30T10:49:13.767Z,22.30
2018-06-30T10:56:39.733Z,22.20
2018-06-30T10:59:08.324Z,22.00
2018-06-30T11:01:36.602Z,22.00
2018-06-30T11:04:04.786Z,22.20
2018-06-30T11:06:33.547Z,22.50
2018-06-30T11:09:01.737Z,22.60
2018-06-30T11:13:58.476Z,22.90
2018-06-30T11:16:26.615Z,23.30
2018-06-30T11:18:54.737Z,23.60
2018-06-30T11:23:50.818Z,23.40
2018-06-30T11:26:18.992Z,23.40
2018-06-30T11:28:47.566Z,23.50
2018-06-30T11:31:16.102Z,23.50
2018-06-30T11:33:44.244Z,23.90
2018-06-30T11:36:13.544Z,24.40
2018-06-30T11:38:43.276Z,24.70
2018-06-30T11:41:11.636Z,24.70
2018-06-30T11:43:40.248Z,24.80
2018-06-30T11:46:09.555Z,24.30
2018-06-30T11:48:37.688Z,24.10
2018-06-30T11:53:33.878Z,23.50
2018-06-30T11:56:02.044Z,22.70
2018-06-30T12:00:58.712Z,23.10
2018-06-30T12:03:27.040Z,23.60
2018-06-30T12:08:23.215Z,24.20
2018-06-30T12:13:19.947Z,23.80
2018-06-30T12:15:48.109Z,23.70
2018-06-30T12:18:16.497Z,23.60
2018-06-30T12:20:44.806Z,23.70
2018-06-30T12:23:13.198Z,23.70
2018-06-30T12:25:41.419Z,23.70
2018-06-30T12:28:10.037Z,23.80
2018-06-30T12:30:39.562Z,23.80
2018-06-30T12:33:07.780Z,23.80
2018-06-30T12:35:36.074Z,23.90
2018-06-30T12:38:06.909Z,23.70
2018-06-30T12:40:35.269Z,23.40
2018-06-30T12:43:03.578Z,23.20
2018-06-30T12:45:32.113Z,23.40
2018-06-30T12:48:00.695Z,23.50
2018-06-30T12:50:29.515Z,23.50
2018-06-30T12:52:57.709Z,23.50
2018-06-30T12:55:30.233Z,23.80
2018-06-30T12:57:58.633Z,24.10
2018-06-30T13:00:26.805Z,24.40
2018-06-30T13:02:56.257Z,24.50
2018-06-30T13:05:25.033Z,24.40
2018-06-30T13:10:27.815Z,24.10
2018-06-30T13:12:55.955Z,24.10
2018-06-30T13:15:24.137Z,23.90
2018-06-30T13:17:52.691Z,23.90
2018-06-30T13:22:49.382Z,24.20
2018-06-30T13:25:17.619Z,24.20
2018-06-30T13:27:47.083Z,24.10
2018-06-30T13:30:15.270Z,24.10
2018-06-30T13:32:43.416Z,24.10
2018-06-30T13:35:12.411Z,24.00
2018-06-30T13:37:40.898Z,24.00
2018-06-30T13:40:09.069Z,23.80
2018-06-30T13:42:37.293Z,23.70
2018-06-30T13:45:07.002Z,23.70
2018-06-30T13:47:35.554Z,23.70
2018-06-30T13:50:04.661Z,23.60
2018-06-30T13:52:34.085Z,23.70
2018-06-30T13:55:03.416Z,23.80
2018-06-30T13:57:31.702Z,23.60
2018-06-30T13:59:59.926Z,23.30
2018-06-30T14:02:28.577Z,23.20
2018-06-30T14:04:57.281Z,23.20
2018-06-30T14:07:25.495Z,23.00
2018-06-30T14:09:53.783Z,22.90
2018-06-30T14:12:22.846Z,22.70
2018-06-30T14:14:52.041Z,22.30
2018-06-30T14:19:49.577Z,22.20
2018-06-30T14:22:18.006Z,22.10
2018-06-30T14:24:46.371Z,22.10
2018-06-30T14:27:14.489Z,22.10
2018-06-30T14:29:42.616Z,22.00
2018-06-30T14:32:12.048Z,22.30
2018-06-30T14:34:40.894Z,22.60
2018-06-30T14:37:09.561Z,22.80
2018-06-30T14:39:40.397Z,22.70
2018-06-30T14:42:09.227Z,22.50
2018-06-30T14:44:37.373Z,22.50
2018-06-30T14:47:05.530Z,22.40
2018-06-30T14:49:33.743Z,22.20
2018-06-30T14:52:01.890Z,22.10
2018-06-30T14:54:30.094Z,22.10
2018-06-30T14:56:58.457Z,22.30
2018-06-30T14:59:26.644Z,22.50
2018-06-30T15:01:54.922Z,22.80
2018-06-30T15:04:23.753Z,23.10
2018-06-30T15:06:51.937Z,23.20
2018-06-30T15:09:20.109Z,23.20
2018-06-30T15:11:48.268Z,22.90
2018-06-30T15:14:16.439Z,22.60
2018-06-30T15:16:44.785Z,22.40
2018-06-30T15:19:12.955Z,22.10
2018-06-30T15:21:41.199Z,21.90
2018-06-30T15:24:09.997Z,21.80
2018-06-30T15:26:38.263Z,21.80
2018-06-30T15:29:06.572Z,21.90
2018-06-30T15:31:34.810Z,21.90
2018-06-30T15:34:03.103Z,21.70
2018-06-30T15:36:31.294Z,21.40
2018-06-30T15:38:59.571Z,21.30
2018-06-30T15:41:27.741Z,21.10
2018-06-30T15:43:57.246Z,21.00
2018-06-30T15:46:25.437Z,21.00
2018-06-30T15:48:53.646Z,21.10
2018-06-30T15:51:21.808Z,21.40
2018-06-30T15:53:50.714Z,21.50
2018-06-30T15:56:18.902Z,21.70
2018-06-30T15:58:47.335Z,21.90
2018-06-30T16:01:15.572Z,21.80
2018-06-30T16:03:43.838Z,21.70
2018-06-30T16:06:11.994Z,21.70
2018-06-30T16:08:40.164Z,21.60
2018-06-30T16:11:08.474Z,21.50
2018-06-30T16:13:36.908Z,21.60
2018-06-30T16:16:05.628Z,21.70
2018-06-30T16:18:33.803Z,21.90
2018-06-30T16:21:02.130Z,22.20
2018-06-30T16:23:30.386Z,22.30
2018-06-30T16:25:58.640Z,22.30
2018-06-30T16:28:26.820Z,22.30
2018-06-30T16:30:55.017Z,22.00
2018-06-30T16:33:23.456Z,21.80
2018-06-30T16:35:51.600Z,21.60
2018-06-30T16:38:19.873Z,21.40
2018-06-30T16:40:48.226Z,21.20
2018-06-30T16:43:16.419Z,21.10
2018-06-30T16:45:44.543Z,21.10
2018-06-30T16:48:12.734Z,21.10
2018-06-30T16:50:40.948Z,21.10
2018-06-30T16:53:09.993Z,21.10
2018-06-30T16:55:38.251Z,21.20
2018-06-30T16:58:06.564Z,21.20
2018-06-30T17:00:36.130Z,21.20
2018-06-30T17:03:05.205Z,21.00
2018-06-30T17:08:01.580Z,21.00
2018-06-30T17:10:29.863Z,20.90
2018-06-30T17:12:58.072Z,20.80
2018-06-30T17:15:26.558Z,20.80
2018-06-30T17:17:54.814Z,20.80
2018-06-30T17:20:23.809Z,20.70
2018-06-30T17:22:52.021Z,20.70
2018-06-30T17:25:21.248Z,20.70
2018-06-30T17:27:49.654Z,20.60
2018-06-30T17:30:17.881Z,20.60
2018-06-30T17:32:46.027Z,20.60
2018-06-30T17:35:14.224Z,20.60
2018-06-30T17:37:42.374Z,20.60
2018-06-30T17:40:10.594Z,20.50
2018-06-30T17:42:38.758Z,20.40
2018-06-30T17:45:07.389Z,20.40
2018-06-30T17:47:35.634Z,20.40
2018-06-30T17:50:03.829Z,20.30
2018-06-30T17:52:32.042Z,20.30
2018-06-30T17:57:28.214Z,20.20
2018-06-30T17:59:56.419Z,20.20
2018-06-30T18:02:25.269Z,20.20
2018-06-30T18:04:53.723Z,20.10
2018-06-30T18:07:22.217Z,20.10
2018-06-30T18:09:50.624Z,20.10
2018-06-30T18:12:19.124Z,20.00
2018-06-30T18:14:47.533Z,19.90
2018-06-30T18:17:15.790Z,19.90
2018-06-30T18:19:43.952Z,19.80
2018-06-30T18:22:12.107Z,19.70
2018-06-30T18:24:40.443Z,19.70
2018-06-30T18:27:08.764Z,19.60
2018-06-30T18:29:36.957Z,19.60
2018-06-30T18:32:05.144Z,19.50
2018-06-30T18:34:33.361Z,19.50
2018-06-30T18:37:01.602Z,19.40
2018-06-30T18:39:29.756Z,19.30
2018-06-30T18:41:57.894Z,19.20
2018-06-30T18:44:26.101Z,19.10
2018-06-30T18:46:54.442Z,19.00
2018-06-30T18:49:24.993Z,18.90
2018-06-30T18:51:55.832Z,18.90
2018-06-30T18:54:24.171Z,18.80
2018-06-30T18:56:52.302Z,18.70
2018-06-30T18:59:20.623Z,18.60
2018-06-30T19:01:48.803Z,18.50
2018-06-30T19:04:17.046Z,18.50
2018-06-30T19:06:45.183Z,18.40
2018-06-30T19:09:13.360Z,18.40
2018-06-30T19:11:41.651Z,18.40
2018-06-30T19:14:10.027Z,18.30
2018-06-30T19:16:38.267Z,18.20
2018-06-30T19:19:06.682Z,18.20
2018-06-30T19:21:34.955Z,18.20
2018-06-30T19:24:03.175Z,18.10
2018-06-30T19:26:31.453Z,18.10
2018-06-30T19:29:01.021Z,18.00
2018-06-30T19:31:29.276Z,17.90
2018-06-30T19:33:57.454Z,17.90
2018-06-30T19:36:26.018Z,17.80
2018-06-30T19:38:54.175Z,17.80
2018-06-30T19:41:22.384Z,17.80
2018-06-30T19:43:50.633Z,17.70
2018-06-30T19:46:18.800Z,17.70
2018-06-30T19:48:47.773Z,17.60
2018-06-30T19:51:16.097Z,17.60
2018-06-30T19:53:45.979Z,17.60
2018-06-30T19:56:14.157Z,17.50
2018-06-30T19:58:44.603Z,17.50
2018-06-30T20:01:12.844Z,17.40
2018-06-30T20:03:41.518Z,17.40
2018-06-30T20:06:10.447Z,17.40
2018-06-30T20:08:38.650Z,17.30
2018-06-30T20:11:06.944Z,17.30
2018-06-30T20:13:35.199Z,17.20
2018-06-30T20:16:03.478Z,17.20
2018-06-30T20:18:32.097Z,17.20
2018-06-30T20:21:01.992Z,17.10
2018-06-30T20:23:31.219Z,17.10
2018-06-30T20:25:59.557Z,17.10
2018-06-30T20:28:27.747Z,17.00
2018-06-30T20:30:56.604Z,17.00
2018-06-30T20:33:24.801Z,17.00
2018-06-30T20:35:52.953Z,16.90
2018-06-30T20:38:21.164Z,16.90
2018-06-30T20:40:49.364Z,16.80
2018-06-30T20:43:17.603Z,16.80
2018-06-30T20:45:48.273Z,16.70
2018-06-30T20:48:17.086Z,16.70
2018-06-30T20:50:46.903Z,16.70
2018-06-30T20:53:15.078Z,16.60
2018-06-30T20:55:43.357Z,16.60
2018-06-30T20:58:11.643Z,16.60
2018-06-30T21:00:39.828Z,16.50
2018-06-30T21:03:10.553Z,16.50
2018-06-30T21:05:38.837Z,16.40
2018-06-30T21:08:07.221Z,16.30
2018-06-30T21:10:35.536Z,16.30
2018-06-30T21:13:04.668Z,16.30
2018-06-30T21:15:34.110Z,16.20
2018-06-30T21:18:03.557Z,16.10
2018-06-30T21:20:32.323Z,16.10
2018-06-30T21:23:00.846Z,16.00
2018-06-30T21:25:29.192Z,16.00
2018-06-30T21:27:57.513Z,16.00
2018-06-30T21:30:27.279Z,15.90
2018-06-30T21:32:55.447Z,15.80
2018-06-30T21:35:23.821Z,15.80
2018-06-30T21:37:52.225Z,15.80
2018-06-30T21:40:21.224Z,15.70
2018-06-30T21:42:49.391Z,15.70
2018-06-30T21:45:17.576Z,15.70
2018-06-30T21:47:45.790Z,15.70
2018-06-30T21:50:14.026Z,15.70
2018-06-30T21:52:42.886Z,15.60
2018-06-30T21:55:11.080Z,15.60
2018-06-30T21:57:39.288Z,15.50
2018-06-30T22:00:11.091Z,15.50
2018-06-30T22:02:39.267Z,15.40
2018-06-30T22:05:07.592Z,15.40
2018-06-30T22:07:35.814Z,15.30
2018-06-30T22:10:04.678Z,15.30
2018-06-30T22:12:33.366Z,15.30
2018-06-30T22:15:01.559Z,15.30
2018-06-30T22:17:30.023Z,15.20
2018-06-30T22:19:58.228Z,15.20
2018-06-30T22:22:26.428Z,15.10
2018-06-30T22:24:55.264Z,15.10
2018-06-30T22:27:23.571Z,15.00
2018-06-30T22:29:51.818Z,15.00
2018-06-30T22:32:19.995Z,15.00
2018-06-30T22:34:48.250Z,14.90
2018-06-30T22:37:16.658Z,14.90
2018-06-30T22:42:18.538Z,14.80
2018-06-30T22:44:46.716Z,14.80
2018-06-30T22:47:15.018Z,14.70
2018-06-30T22:49:43.119Z,14.70
2018-06-30T22:52:11.380Z,14.70
2018-06-30T22:54:39.621Z,14.60
2018-06-30T22:57:08.718Z,14.60
2018-06-30T22:59:36.929Z,14.50
2018-06-30T23:02:05.218Z,14.50
2018-06-30T23:04:33.387Z,14.40
2018-06-30T23:07:01.604Z,14.40
2018-06-30T23:09:29.883Z,14.40
2018-06-30T23:11:58.057Z,14.30
2018-06-30T23:14:26.265Z,14.30
2018-06-30T23:16:54.401Z,14.30
2018-06-30T23:19:22.684Z,14.20
2018-06-30T23:21:51.137Z,14.20
2018-06-30T23:24:19.345Z,14.10
2018-06-30T23:26:47.614Z,14.10
2018-06-30T23:29:16.329Z,14.10
2018-06-30T23:31:44.675Z,14.00
2018-06-30T23:34:12.972Z,14.00
2018-06-30T23:36:41.160Z,14.00
2018-06-30T23:39:11.245Z,14.00
2018-06-30T23:41:39.667Z,14.00
2018-06-30T23:44:08.599Z,13.90
2018-06-30T23:46:36.746Z,13.90
2018-06-30T23:49:05.516Z,13.90
2018-06-30T23:51:33.776Z,13.90
2018-06-30T23:54:02.682Z,13.80
2018-06-30T23:56:31.025Z,13.80
2018-06-30T23:58:59.233Z,13.80
